sensor_id;sensor_type;location;lat;lon;timestamp;P1;durP1;ratioP1;P2;durP2;ratioP2
79401;SDS011;68857;47.916;106.940;2023-04-03T00:03:42;52.83;;;22.77;;
79401;SDS011;68857;47.916;106.940;2023-04-03T00:06:09;53.22;;;23.85;;
79401;SDS011;68857;47.916;106.940;2023-04-03T00:08:37;51.80;;;23.27;;
79401;SDS011;68857;47.916;106.940;2023-04-03T00:11:04;55.50;;;24.48;;
79401;SDS011;68857;47.916;106.940;2023-04-03T00:13:31;48.63;;;21.52;;
79401;SDS011;68857;47.916;106.940;2023-04-03T00:18:23;46.83;;;19.13;;
79401;SDS011;68857;47.916;106.940;2023-04-03T00:20:50;41.28;;;18.58;;
79401;SDS011;68857;47.916;106.940;2023-04-03T00:23:17;42.42;;;19.85;;
79401;SDS011;68857;47.916;106.940;2023-04-03T00:25:43;44.33;;;19.92;;
79401;SDS011;68857;47.916;106.940;2023-04-03T00:28:10;40.25;;;17.90;;
79401;SDS011;68857;47.916;106.940;2023-04-03T00:30:36;40.95;;;16.80;;
79401;SDS011;68857;47.916;106.940;2023-04-03T00:33:03;39.83;;;19.25;;
79401;SDS011;68857;47.916;106.940;2023-04-03T00:35:29;42.30;;;18.63;;
79401;SDS011;68857;47.916;106.940;2023-04-03T00:37:56;39.80;;;18.25;;
79401;SDS011;68857;47.916;106.940;2023-04-03T00:40:23;35.75;;;16.98;;
79401;SDS011;68857;47.916;106.940;2023-04-03T00:42:57;37.97;;;17.45;;
79401;SDS011;68857;47.916;106.940;2023-04-03T00:45:30;36.40;;;18.58;;
79401;SDS011;68857;47.916;106.940;2023-04-03T00:47:57;35.22;;;15.93;;
79401;SDS011;68857;47.916;106.940;2023-04-03T00:50:25;37.38;;;16.10;;
79401;SDS011;68857;47.916;106.940;2023-04-03T00:52:52;35.65;;;15.00;;
79401;SDS011;68857;47.916;106.940;2023-04-03T00:55:19;32.28;;;15.70;;
79401;SDS011;68857;47.916;106.940;2023-04-03T00:57:45;34.38;;;15.18;;
79401;SDS011;68857;47.916;106.940;2023-04-03T01:00:13;30.80;;;14.07;;
79401;SDS011;68857;47.916;106.940;2023-04-03T01:02:40;31.80;;;13.90;;
79401;SDS011;68857;47.916;106.940;2023-04-03T01:05:07;26.23;;;12.27;;
79401;SDS011;68857;47.916;106.940;2023-04-03T01:07:34;28.05;;;12.88;;
79401;SDS011;68857;47.916;106.940;2023-04-03T01:10:06;28.23;;;12.82;;
79401;SDS011;68857;47.916;106.940;2023-04-03T01:12:34;28.48;;;12.55;;
79401;SDS011;68857;47.916;106.940;2023-04-03T01:15:06;27.33;;;13.38;;
79401;SDS011;68857;47.916;106.940;2023-04-03T01:22:44;30.65;;;12.93;;
79401;SDS011;68857;47.916;106.940;2023-04-03T01:25:12;33.00;;;15.15;;
79401;SDS011;68857;47.916;106.940;2023-04-03T01:27:38;29.30;;;13.85;;
79401;SDS011;68857;47.916;106.940;2023-04-03T01:30:05;31.02;;;15.40;;
79401;SDS011;68857;47.916;106.940;2023-04-03T01:32:32;35.40;;;16.88;;
79401;SDS011;68857;47.916;106.940;2023-04-03T01:34:59;37.45;;;15.77;;
79401;SDS011;68857;47.916;106.940;2023-04-03T01:37:25;35.45;;;15.73;;
79401;SDS011;68857;47.916;106.940;2023-04-03T01:39:51;34.83;;;16.23;;
79401;SDS011;68857;47.916;106.940;2023-04-03T01:42:18;35.03;;;13.93;;
79401;SDS011;68857;47.916;106.940;2023-04-03T01:44:44;34.03;;;15.07;;
79401;SDS011;68857;47.916;106.940;2023-04-03T01:49:37;32.50;;;13.27;;
79401;SDS011;68857;47.916;106.940;2023-04-03T01:52:03;30.13;;;14.25;;
79401;SDS011;68857;47.916;106.940;2023-04-03T01:54:30;29.20;;;13.32;;
79401;SDS011;68857;47.916;106.940;2023-04-03T01:56:56;25.75;;;12.27;;
79401;SDS011;68857;47.916;106.940;2023-04-03T01:59:22;24.27;;;11.73;;
79401;SDS011;68857;47.916;106.940;2023-04-03T02:01:50;23.88;;;11.05;;
79401;SDS011;68857;47.916;106.940;2023-04-03T02:04:16;24.50;;;9.63;;
79401;SDS011;68857;47.916;106.940;2023-04-03T02:06:43;20.40;;;8.88;;
79401;SDS011;68857;47.916;106.940;2023-04-03T02:11:35;18.42;;;7.65;;
79401;SDS011;68857;47.916;106.940;2023-04-03T02:14:02;14.82;;;6.95;;
79401;SDS011;68857;47.916;106.940;2023-04-03T02:16:28;12.43;;;6.00;;
79401;SDS011;68857;47.916;106.940;2023-04-03T02:18:56;14.48;;;5.55;;
79401;SDS011;68857;47.916;106.940;2023-04-03T02:21:22;9.82;;;4.68;;
79401;SDS011;68857;47.916;106.940;2023-04-03T02:23:49;10.13;;;4.35;;
79401;SDS011;68857;47.916;106.940;2023-04-03T02:26:15;7.82;;;3.20;;
79401;SDS011;68857;47.916;106.940;2023-04-03T02:28:42;7.22;;;3.58;;
79401;SDS011;68857;47.916;106.940;2023-04-03T02:33:35;5.72;;;2.88;;
79401;SDS011;68857;47.916;106.940;2023-04-03T02:36:03;8.35;;;3.70;;
79401;SDS011;68857;47.916;106.940;2023-04-03T02:38:30;5.85;;;2.22;;
79401;SDS011;68857;47.916;106.940;2023-04-03T02:41:00;4.15;;;2.33;;
79401;SDS011;68857;47.916;106.940;2023-04-03T02:43:27;5.85;;;2.50;;
79401;SDS011;68857;47.916;106.940;2023-04-03T02:45:53;4.60;;;2.33;;
79401;SDS011;68857;47.916;106.940;2023-04-03T02:48:20;4.68;;;2.10;;
79401;SDS011;68857;47.916;106.940;2023-04-03T02:50:46;3.70;;;2.10;;
79401;SDS011;68857;47.916;106.940;2023-04-03T02:53:13;4.00;;;2.08;;
79401;SDS011;68857;47.916;106.940;2023-04-03T02:55:40;3.45;;;1.83;;
79401;SDS011;68857;47.916;106.940;2023-04-03T03:00:33;4.90;;;2.42;;
79401;SDS011;68857;47.916;106.940;2023-04-03T03:02:59;4.53;;;1.95;;
79401;SDS011;68857;47.916;106.940;2023-04-03T03:05:26;4.30;;;1.90;;
79401;SDS011;68857;47.916;106.940;2023-04-03T03:07:53;2.55;;;1.45;;
79401;SDS011;68857;47.916;106.940;2023-04-03T03:10:19;4.47;;;2.10;;
79401;SDS011;68857;47.916;106.940;2023-04-03T03:15:12;2.25;;;1.38;;
79401;SDS011;68857;47.916;106.940;2023-04-03T03:20:05;3.63;;;1.55;;
79401;SDS011;68857;47.916;106.940;2023-04-03T03:22:32;3.45;;;1.70;;
79401;SDS011;68857;47.916;106.940;2023-04-03T03:27:24;2.72;;;1.38;;
79401;SDS011;68857;47.916;106.940;2023-04-03T03:29:51;5.07;;;1.67;;
79401;SDS011;68857;47.916;106.940;2023-04-03T03:32:17;3.15;;;2.13;;
79401;SDS011;68857;47.916;106.940;2023-04-03T03:37:10;2.95;;;2.22;;
79401;SDS011;68857;47.916;106.940;2023-04-03T03:39:36;5.03;;;1.60;;
79401;SDS011;68857;47.916;106.940;2023-04-03T03:42:03;3.75;;;1.60;;
79401;SDS011;68857;47.916;106.940;2023-04-03T03:44:29;3.08;;;1.70;;
79401;SDS011;68857;47.916;106.940;2023-04-03T03:46:55;3.67;;;1.98;;
79401;SDS011;68857;47.916;106.940;2023-04-03T03:49:22;3.47;;;2.25;;
79401;SDS011;68857;47.916;106.940;2023-04-03T03:51:48;2.88;;;1.35;;
79401;SDS011;68857;47.916;106.940;2023-04-03T03:54:16;4.88;;;1.60;;
79401;SDS011;68857;47.916;106.940;2023-04-03T03:59:10;3.30;;;1.30;;
79401;SDS011;68857;47.916;106.940;2023-04-03T04:01:37;3.80;;;2.20;;
79401;SDS011;68857;47.916;106.940;2023-04-03T04:04:04;4.03;;;1.95;;
79401;SDS011;68857;47.916;106.940;2023-04-03T04:06:31;5.88;;;1.80;;
79401;SDS011;68857;47.916;106.940;2023-04-03T04:08:57;3.95;;;1.67;;
79401;SDS011;68857;47.916;106.940;2023-04-03T04:11:23;4.30;;;1.88;;
79401;SDS011;68857;47.916;106.940;2023-04-03T04:16:16;3.88;;;1.70;;
79401;SDS011;68857;47.916;106.940;2023-04-03T04:21:09;3.22;;;1.45;;
79401;SDS011;68857;47.916;106.940;2023-04-03T04:23:35;3.45;;;1.55;;
79401;SDS011;68857;47.916;106.940;2023-04-03T04:26:01;2.92;;;1.30;;
79401;SDS011;68857;47.916;106.940;2023-04-03T04:28:28;2.83;;;1.20;;
79401;SDS011;68857;47.916;106.940;2023-04-03T04:30:54;3.03;;;1.17;;
79401;SDS011;68857;47.916;106.940;2023-04-03T04:33:20;4.50;;;1.60;;
79401;SDS011;68857;47.916;106.940;2023-04-03T04:35:47;3.33;;;1.65;;
79401;SDS011;68857;47.916;106.940;2023-04-03T04:38:15;3.33;;;1.33;;
79401;SDS011;68857;47.916;106.940;2023-04-03T04:40:42;2.63;;;1.60;;
79401;SDS011;68857;47.916;106.940;2023-04-03T04:43:08;3.88;;;1.50;;
79401;SDS011;68857;47.916;106.940;2023-04-03T04:45:35;5.20;;;1.77;;
79401;SDS011;68857;47.916;106.940;2023-04-03T04:50:28;3.13;;;1.95;;
79401;SDS011;68857;47.916;106.940;2023-04-03T04:52:54;3.90;;;1.67;;
79401;SDS011;68857;47.916;106.940;2023-04-03T04:55:21;3.25;;;1.05;;
79401;SDS011;68857;47.916;106.940;2023-04-03T04:57:47;2.90;;;1.42;;
79401;SDS011;68857;47.916;106.940;2023-04-03T05:02:40;3.63;;;1.50;;
79401;SDS011;68857;47.916;106.940;2023-04-03T05:05:06;3.90;;;2.03;;
79401;SDS011;68857;47.916;106.940;2023-04-03T05:07:33;3.00;;;1.48;;
79401;SDS011;68857;47.916;106.940;2023-04-03T05:10:01;2.67;;;1.15;;
79401;SDS011;68857;47.916;106.940;2023-04-03T05:12:27;5.03;;;1.45;;
79401;SDS011;68857;47.916;106.940;2023-04-03T05:14:54;3.28;;;1.65;;
79401;SDS011;68857;47.916;106.940;2023-04-03T05:19:46;3.05;;;1.60;;
79401;SDS011;68857;47.916;106.940;2023-04-03T05:22:13;3.28;;;1.60;;
79401;SDS011;68857;47.916;106.940;2023-04-03T05:24:40;4.13;;;1.77;;
79401;SDS011;68857;47.916;106.940;2023-04-03T05:29:32;3.30;;;2.03;;
79401;SDS011;68857;47.916;106.940;2023-04-03T05:31:59;4.15;;;2.00;;
79401;SDS011;68857;47.916;106.940;2023-04-03T05:36:52;4.22;;;1.70;;
79401;SDS011;68857;47.916;106.940;2023-04-03T05:41:44;4.03;;;1.95;;
79401;SDS011;68857;47.916;106.940;2023-04-03T05:46:37;3.42;;;1.55;;
79401;SDS011;68857;47.916;106.940;2023-04-03T05:51:38;3.38;;;1.63;;
79401;SDS011;68857;47.916;106.940;2023-04-03T05:54:25;4.55;;;1.73;;
79401;SDS011;68857;47.916;106.940;2023-04-03T05:56:52;5.50;;;1.83;;
79401;SDS011;68857;47.916;106.940;2023-04-03T05:59:19;4.78;;;2.13;;
79401;SDS011;68857;47.916;106.940;2023-04-03T06:01:46;3.53;;;1.92;;
79401;SDS011;68857;47.916;106.940;2023-04-03T06:04:12;3.75;;;2.70;;
79401;SDS011;68857;47.916;106.940;2023-04-03T06:06:43;3.92;;;2.00;;
79401;SDS011;68857;47.916;106.940;2023-04-03T06:09:10;4.25;;;2.00;;
79401;SDS011;68857;47.916;106.940;2023-04-03T06:14:03;3.22;;;1.50;;
79401;SDS011;68857;47.916;106.940;2023-04-03T06:18:55;4.05;;;1.80;;
79401;SDS011;68857;47.916;106.940;2023-04-03T06:21:22;3.90;;;2.47;;
79401;SDS011;68857;47.916;106.940;2023-04-03T06:26:16;5.15;;;2.10;;
79401;SDS011;68857;47.916;106.940;2023-04-03T06:28:43;4.70;;;2.22;;
79401;SDS011;68857;47.916;106.940;2023-04-03T06:33:36;4.63;;;2.55;;
79401;SDS011;68857;47.916;106.940;2023-04-03T06:38:28;5.25;;;2.35;;
79401;SDS011;68857;47.916;106.940;2023-04-03T06:43:22;5.60;;;1.98;;
79401;SDS011;68857;47.916;106.940;2023-04-03T06:45:49;4.30;;;2.38;;
79401;SDS011;68857;47.916;106.940;2023-04-03T06:50:42;6.03;;;2.75;;
79401;SDS011;68857;47.916;106.940;2023-04-03T06:55:35;5.07;;;2.50;;
79401;SDS011;68857;47.916;106.940;2023-04-03T06:58:02;5.32;;;2.85;;
79401;SDS011;68857;47.916;106.940;2023-04-03T07:00:29;4.10;;;2.15;;
79401;SDS011;68857;47.916;106.940;2023-04-03T07:02:56;6.55;;;3.65;;
79401;SDS011;68857;47.916;106.940;2023-04-03T07:07:49;5.90;;;2.50;;
79401;SDS011;68857;47.916;106.940;2023-04-03T07:10:15;4.70;;;2.50;;
79401;SDS011;68857;47.916;106.940;2023-04-03T07:15:08;4.60;;;2.30;;
79401;SDS011;68857;47.916;106.940;2023-04-03T07:17:35;5.95;;;2.90;;
79401;SDS011;68857;47.916;106.940;2023-04-03T07:20:02;4.68;;;2.47;;
79401;SDS011;68857;47.916;106.940;2023-04-03T07:22:29;5.07;;;3.40;;
79401;SDS011;68857;47.916;106.940;2023-04-03T07:24:55;5.35;;;2.80;;
79401;SDS011;68857;47.916;106.940;2023-04-03T07:27:24;4.78;;;2.50;;
79401;SDS011;68857;47.916;106.940;2023-04-03T07:29:51;6.82;;;3.00;;
79401;SDS011;68857;47.916;106.940;2023-04-03T07:32:17;5.50;;;2.83;;
79401;SDS011;68857;47.916;106.940;2023-04-03T07:37:10;6.05;;;2.67;;
79401;SDS011;68857;47.916;106.940;2023-04-03T07:39:37;5.75;;;3.15;;
79401;SDS011;68857;47.916;106.940;2023-04-03T07:44:30;5.60;;;2.10;;
79401;SDS011;68857;47.916;106.940;2023-04-03T07:46:57;8.43;;;3.17;;
79401;SDS011;68857;47.916;106.940;2023-04-03T07:49:28;6.20;;;3.03;;
79401;SDS011;68857;47.916;106.940;2023-04-03T07:51:55;6.60;;;3.03;;
79401;SDS011;68857;47.916;106.940;2023-04-03T07:54:21;8.57;;;4.38;;
79401;SDS011;68857;47.916;106.940;2023-04-03T07:59:14;7.90;;;3.03;;
79401;SDS011;68857;47.916;106.940;2023-04-03T08:01:41;8.18;;;2.78;;
79401;SDS011;68857;47.916;106.940;2023-04-03T08:04:07;9.27;;;3.25;;
79401;SDS011;68857;47.916;106.940;2023-04-03T08:06:34;6.40;;;3.50;;
79401;SDS011;68857;47.916;106.940;2023-04-03T08:09:03;6.72;;;2.85;;
79401;SDS011;68857;47.916;106.940;2023-04-03T08:11:30;7.70;;;2.92;;
79401;SDS011;68857;47.916;106.940;2023-04-03T08:13:56;8.40;;;3.40;;
79401;SDS011;68857;47.916;106.940;2023-04-03T08:16:23;8.80;;;2.90;;
79401;SDS011;68857;47.916;106.940;2023-04-03T08:18:53;9.13;;;3.50;;
79401;SDS011;68857;47.916;106.940;2023-04-03T08:21:20;12.75;;;3.47;;
79401;SDS011;68857;47.916;106.940;2023-04-03T08:23:49;9.80;;;3.25;;
79401;SDS011;68857;47.916;106.940;2023-04-03T08:26:17;11.05;;;3.45;;
79401;SDS011;68857;47.916;106.940;2023-04-03T08:28:45;10.77;;;3.95;;
79401;SDS011;68857;47.916;106.940;2023-04-03T08:31:13;12.75;;;4.00;;
79401;SDS011;68857;47.916;106.940;2023-04-03T08:33:40;10.93;;;2.88;;
79401;SDS011;68857;47.916;106.940;2023-04-03T08:36:08;11.45;;;3.20;;
79401;SDS011;68857;47.916;106.940;2023-04-03T08:38:42;8.25;;;2.80;;
79401;SDS011;68857;47.916;106.940;2023-04-03T08:41:16;7.82;;;2.63;;
79401;SDS011;68857;47.916;106.940;2023-04-03T08:43:55;8.25;;;3.17;;
79401;SDS011;68857;47.916;106.940;2023-04-03T08:46:23;9.75;;;4.38;;
79401;SDS011;68857;47.916;106.940;2023-04-03T08:48:52;7.05;;;3.03;;
79401;SDS011;68857;47.916;106.940;2023-04-03T08:51:20;8.63;;;2.60;;
79401;SDS011;68857;47.916;106.940;2023-04-03T08:53:54;9.48;;;3.45;;
79401;SDS011;68857;47.916;106.940;2023-04-03T08:56:21;9.43;;;3.28;;
79401;SDS011;68857;47.916;106.940;2023-04-03T08:58:55;10.60;;;3.28;;
79401;SDS011;68857;47.916;106.940;2023-04-03T09:03:55;7.35;;;2.80;;
79401;SDS011;68857;47.916;106.940;2023-04-03T09:21:36;10.80;;;3.47;;
79401;SDS011;68857;47.916;106.940;2023-04-03T09:24:04;8.02;;;2.65;;
79401;SDS011;68857;47.916;106.940;2023-04-03T09:27:14;6.97;;;1.90;;
79401;SDS011;68857;47.916;106.940;2023-04-03T09:29:24;9.48;;;2.50;;
79401;SDS011;68857;47.916;106.940;2023-04-03T09:31:56;8.35;;;2.10;;
79401;SDS011;68857;47.916;106.940;2023-04-03T09:34:24;6.80;;;2.10;;
79401;SDS011;68857;47.916;106.940;2023-04-03T09:36:55;11.40;;;3.28;;
79401;SDS011;68857;47.916;106.940;2023-04-03T09:39:24;4.50;;;1.80;;
79401;SDS011;68857;47.916;106.940;2023-04-03T09:44:26;6.68;;;2.28;;
79401;SDS011;68857;47.916;106.940;2023-04-03T09:46:54;4.82;;;1.98;;
79401;SDS011;68857;47.916;106.940;2023-04-03T09:49:20;6.93;;;2.42;;
79401;SDS011;68857;47.916;106.940;2023-04-03T09:51:47;5.35;;;2.25;;
79401;SDS011;68857;47.916;106.940;2023-04-03T09:54:24;4.18;;;2.30;;
79401;SDS011;68857;47.916;106.940;2023-04-03T09:59:18;5.43;;;1.92;;
79401;SDS011;68857;47.916;106.940;2023-04-03T10:04:40;4.32;;;1.48;;
79401;SDS011;68857;47.916;106.940;2023-04-03T10:09:56;4.40;;;1.80;;
79401;SDS011;68857;47.916;106.940;2023-04-03T10:12:23;4.50;;;2.20;;
79401;SDS011;68857;47.916;106.940;2023-04-03T10:17:32;5.80;;;2.10;;
79401;SDS011;68857;47.916;106.940;2023-04-03T10:35:07;4.88;;;2.13;;
79401;SDS011;68857;47.916;106.940;2023-04-03T10:37:40;4.97;;;2.33;;
79401;SDS011;68857;47.916;106.940;2023-04-03T10:42:56;5.65;;;2.50;;
79401;SDS011;68857;47.916;106.940;2023-04-03T10:47:58;4.50;;;2.53;;
79401;SDS011;68857;47.916;106.940;2023-04-03T10:57:54;5.82;;;3.05;;
79401;SDS011;68857;47.916;106.940;2023-04-03T11:00:44;7.07;;;2.92;;
79401;SDS011;68857;47.916;106.940;2023-04-03T11:03:30;6.47;;;2.70;;
79401;SDS011;68857;47.916;106.940;2023-04-03T11:05:57;6.15;;;2.78;;
79401;SDS011;68857;47.916;106.940;2023-04-03T11:08:33;7.50;;;3.35;;
79401;SDS011;68857;47.916;106.940;2023-04-03T11:11:08;6.63;;;2.90;;
79401;SDS011;68857;47.916;106.940;2023-04-03T11:13:38;7.18;;;3.70;;
79401;SDS011;68857;47.916;106.940;2023-04-03T11:16:06;6.85;;;3.45;;
79401;SDS011;68857;47.916;106.940;2023-04-03T11:18:39;7.07;;;2.78;;
79401;SDS011;68857;47.916;106.940;2023-04-03T11:21:14;5.25;;;2.70;;
79401;SDS011;68857;47.916;106.940;2023-04-03T11:26:11;5.75;;;2.83;;
79401;SDS011;68857;47.916;106.940;2023-04-03T11:28:39;6.53;;;3.05;;
79401;SDS011;68857;47.916;106.940;2023-04-03T11:36:02;6.25;;;3.45;;
79401;SDS011;68857;47.916;106.940;2023-04-03T11:38:35;8.05;;;2.83;;
79401;SDS011;68857;47.916;106.940;2023-04-03T11:41:04;7.40;;;3.40;;
79401;SDS011;68857;47.916;106.940;2023-04-03T11:43:32;7.75;;;3.20;;
79401;SDS011;68857;47.916;106.940;2023-04-03T11:46:02;9.10;;;4.18;;
79401;SDS011;68857;47.916;106.940;2023-04-03T11:53:42;8.52;;;3.58;;
79401;SDS011;68857;47.916;106.940;2023-04-03T12:04:10;6.15;;;3.80;;
79401;SDS011;68857;47.916;106.940;2023-04-03T12:14:50;8.77;;;4.47;;
79401;SDS011;68857;47.916;106.940;2023-04-03T12:17:22;8.60;;;4.22;;
79401;SDS011;68857;47.916;106.940;2023-04-03T12:22:16;9.95;;;4.50;;
79401;SDS011;68857;47.916;106.940;2023-04-03T12:24:47;7.75;;;4.00;;
79401;SDS011;68857;47.916;106.940;2023-04-03T12:29:46;9.65;;;4.13;;
79401;SDS011;68857;47.916;106.940;2023-04-03T12:32:26;8.43;;;3.58;;
79401;SDS011;68857;47.916;106.940;2023-04-03T12:45:38;14.18;;;6.28;;
79401;SDS011;68857;47.916;106.940;2023-04-03T12:48:08;12.02;;;7.00;;
79401;SDS011;68857;47.916;106.940;2023-04-03T12:50:38;14.73;;;6.38;;
79401;SDS011;68857;47.916;106.940;2023-04-03T12:53:11;15.02;;;6.63;;
79401;SDS011;68857;47.916;106.940;2023-04-03T12:55:38;13.13;;;7.00;;
79401;SDS011;68857;47.916;106.940;2023-04-03T12:58:22;15.18;;;7.00;;
79401;SDS011;68857;47.916;106.940;2023-04-03T13:01:02;14.80;;;6.28;;
79401;SDS011;68857;47.916;106.940;2023-04-03T13:03:29;15.50;;;6.15;;
79401;SDS011;68857;47.916;106.940;2023-04-03T13:06:02;13.20;;;6.80;;
79401;SDS011;68857;47.916;106.940;2023-04-03T13:08:29;16.33;;;6.05;;
79401;SDS011;68857;47.916;106.940;2023-04-03T13:11:00;10.05;;;4.88;;
79401;SDS011;68857;47.916;106.940;2023-04-03T13:13:27;14.52;;;6.40;;
79401;SDS011;68857;47.916;106.940;2023-04-03T13:15:54;14.90;;;6.68;;
79401;SDS011;68857;47.916;106.940;2023-04-03T13:18:22;15.77;;;6.65;;
79401;SDS011;68857;47.916;106.940;2023-04-03T13:20:49;14.10;;;6.32;;
79401;SDS011;68857;47.916;106.940;2023-04-03T13:23:16;13.75;;;6.15;;
79401;SDS011;68857;47.916;106.940;2023-04-03T13:25:44;14.00;;;6.20;;
79401;SDS011;68857;47.916;106.940;2023-04-03T13:28:13;12.45;;;5.68;;
79401;SDS011;68857;47.916;106.940;2023-04-03T13:30:41;11.02;;;5.28;;
79401;SDS011;68857;47.916;106.940;2023-04-03T13:33:26;12.10;;;6.43;;
79401;SDS011;68857;47.916;106.940;2023-04-03T13:36:16;10.10;;;5.63;;
79401;SDS011;68857;47.916;106.940;2023-04-03T13:38:43;10.80;;;5.45;;
79401;SDS011;68857;47.916;106.940;2023-04-03T13:44:42;13.15;;;6.00;;
79401;SDS011;68857;47.916;106.940;2023-04-03T13:49:38;14.43;;;6.10;;
79401;SDS011;68857;47.916;106.940;2023-04-03T13:54:47;12.25;;;6.00;;
79401;SDS011;68857;47.916;106.940;2023-04-03T13:57:17;13.48;;;6.22;;
79401;SDS011;68857;47.916;106.940;2023-04-03T13:59:44;13.20;;;6.00;;
79401;SDS011;68857;47.916;106.940;2023-04-03T14:02:14;13.00;;;5.97;;
79401;SDS011;68857;47.916;106.940;2023-04-03T14:07:11;11.65;;;6.47;;
79401;SDS011;68857;47.916;106.940;2023-04-03T14:09:38;11.85;;;6.32;;
79401;SDS011;68857;47.916;106.940;2023-04-03T14:14:32;15.30;;;6.60;;
79401;SDS011;68857;47.916;106.940;2023-04-03T14:17:00;14.98;;;6.80;;
79401;SDS011;68857;47.916;106.940;2023-04-03T14:19:34;18.40;;;6.90;;
79401;SDS011;68857;47.916;106.940;2023-04-03T14:22:06;15.98;;;6.85;;
79401;SDS011;68857;47.916;106.940;2023-04-03T14:24:37;16.70;;;7.28;;
79401;SDS011;68857;47.916;106.940;2023-04-03T14:27:05;17.77;;;7.68;;
79401;SDS011;68857;47.916;106.940;2023-04-03T14:29:39;17.00;;;7.65;;
79401;SDS011;68857;47.916;106.940;2023-04-03T14:32:06;16.52;;;7.43;;
79401;SDS011;68857;47.916;106.940;2023-04-03T14:34:32;14.32;;;7.93;;
79401;SDS011;68857;47.916;106.940;2023-04-03T14:36:59;12.82;;;6.90;;
79401;SDS011;68857;47.916;106.940;2023-04-03T14:41:51;14.80;;;6.35;;
79401;SDS011;68857;47.916;106.940;2023-04-03T14:44:18;14.07;;;6.35;;
79401;SDS011;68857;47.916;106.940;2023-04-03T14:46:44;15.57;;;6.65;;
79401;SDS011;68857;47.916;106.940;2023-04-03T14:49:15;12.85;;;5.57;;
79401;SDS011;68857;47.916;106.940;2023-04-03T14:51:44;13.43;;;5.60;;
79401;SDS011;68857;47.916;106.940;2023-04-03T14:54:12;14.38;;;6.25;;
79401;SDS011;68857;47.916;106.940;2023-04-03T14:56:39;16.67;;;7.80;;
79401;SDS011;68857;47.916;106.940;2023-04-03T14:59:08;14.93;;;6.25;;
79401;SDS011;68857;47.916;106.940;2023-04-03T15:01:35;15.38;;;6.80;;
79401;SDS011;68857;47.916;106.940;2023-04-03T15:04:05;16.13;;;6.45;;
79401;SDS011;68857;47.916;106.940;2023-04-03T15:06:31;16.83;;;7.25;;
79401;SDS011;68857;47.916;106.940;2023-04-03T15:08:58;19.63;;;8.75;;
79401;SDS011;68857;47.916;106.940;2023-04-03T15:13:52;22.60;;;9.50;;
79401;SDS011;68857;47.916;106.940;2023-04-03T15:16:19;24.10;;;10.38;;
79401;SDS011;68857;47.916;106.940;2023-04-03T15:18:45;26.73;;;11.13;;
79401;SDS011;68857;47.916;106.940;2023-04-03T15:21:13;28.67;;;11.98;;
79401;SDS011;68857;47.916;106.940;2023-04-03T15:23:39;28.65;;;12.10;;
79401;SDS011;68857;47.916;106.940;2023-04-03T15:26:07;29.00;;;12.93;;
79401;SDS011;68857;47.916;106.940;2023-04-03T15:28:34;33.95;;;14.30;;
79401;SDS011;68857;47.916;106.940;2023-04-03T15:31:01;36.83;;;15.15;;
79401;SDS011;68857;47.916;106.940;2023-04-03T15:33:28;35.60;;;14.70;;
79401;SDS011;68857;47.916;106.940;2023-04-03T15:38:21;39.80;;;15.30;;
79401;SDS011;68857;47.916;106.940;2023-04-03T15:40:47;40.08;;;17.08;;
79401;SDS011;68857;47.916;106.940;2023-04-03T15:43:14;40.17;;;16.63;;
79401;SDS011;68857;47.916;106.940;2023-04-03T15:45:40;42.97;;;16.88;;
79401;SDS011;68857;47.916;106.940;2023-04-03T15:48:07;40.63;;;17.27;;
79401;SDS011;68857;47.916;106.940;2023-04-03T15:50:35;45.65;;;17.02;;
79401;SDS011;68857;47.916;106.940;2023-04-03T15:53:01;46.08;;;18.10;;
79401;SDS011;68857;47.916;106.940;2023-04-03T15:55:29;49.33;;;18.25;;
79401;SDS011;68857;47.916;106.940;2023-04-03T15:57:56;47.20;;;18.85;;
79401;SDS011;68857;47.916;106.940;2023-04-03T16:00:23;51.50;;;19.80;;
79401;SDS011;68857;47.916;106.940;2023-04-03T16:02:50;51.20;;;19.27;;
79401;SDS011;68857;47.916;106.940;2023-04-03T16:05:18;47.58;;;20.40;;
79401;SDS011;68857;47.916;106.940;2023-04-03T16:07:45;53.08;;;20.17;;
79401;SDS011;68857;47.916;106.940;2023-04-03T16:10:12;55.80;;;20.85;;
79401;SDS011;68857;47.916;106.940;2023-04-03T16:12:39;49.83;;;18.13;;
79401;SDS011;68857;47.916;106.940;2023-04-03T16:15:05;51.20;;;19.80;;
79401;SDS011;68857;47.916;106.940;2023-04-03T16:17:33;48.80;;;18.23;;
79401;SDS011;68857;47.916;106.940;2023-04-03T16:20:00;49.38;;;19.33;;
79401;SDS011;68857;47.916;106.940;2023-04-03T16:22:28;46.95;;;19.92;;
79401;SDS011;68857;47.916;106.940;2023-04-03T16:24:55;46.17;;;20.58;;
79401;SDS011;68857;47.916;106.940;2023-04-03T16:27:22;48.13;;;18.80;;
79401;SDS011;68857;47.916;106.940;2023-04-03T16:29:55;49.42;;;17.38;;
79401;SDS011;68857;47.916;106.940;2023-04-03T16:32:22;43.38;;;17.75;;
79401;SDS011;68857;47.916;106.940;2023-04-03T16:34:48;45.17;;;20.42;;
79401;SDS011;68857;47.916;106.940;2023-04-03T16:37:15;51.15;;;21.52;;
79401;SDS011;68857;47.916;106.940;2023-04-03T16:39:42;48.65;;;21.95;;
79401;SDS011;68857;47.916;106.940;2023-04-03T16:42:08;48.20;;;19.92;;
79401;SDS011;68857;47.916;106.940;2023-04-03T16:44:35;52.28;;;22.25;;
79401;SDS011;68857;47.916;106.940;2023-04-03T16:49:27;51.33;;;19.90;;
79401;SDS011;68857;47.916;106.940;2023-04-03T16:51:58;53.60;;;20.27;;
79401;SDS011;68857;47.916;106.940;2023-04-03T16:54:25;52.70;;;21.25;;
79401;SDS011;68857;47.916;106.940;2023-04-03T16:56:52;56.63;;;21.90;;
79401;SDS011;68857;47.916;106.940;2023-04-03T16:59:19;52.15;;;21.15;;
79401;SDS011;68857;47.916;106.940;2023-04-03T17:01:46;57.42;;;20.85;;
79401;SDS011;68857;47.916;106.940;2023-04-03T17:04:12;63.83;;;23.75;;
79401;SDS011;68857;47.916;106.940;2023-04-03T17:06:39;60.08;;;23.20;;
79401;SDS011;68857;47.916;106.940;2023-04-03T17:09:05;57.13;;;22.63;;
79401;SDS011;68857;47.916;106.940;2023-04-03T17:11:32;53.00;;;22.60;;
79401;SDS011;68857;47.916;106.940;2023-04-03T17:13:59;61.78;;;22.27;;
79401;SDS011;68857;47.916;106.940;2023-04-03T17:16:26;52.00;;;22.70;;
79401;SDS011;68857;47.916;106.940;2023-04-03T17:18:52;61.80;;;23.58;;
79401;SDS011;68857;47.916;106.940;2023-04-03T17:21:19;52.15;;;22.15;;
79401;SDS011;68857;47.916;106.940;2023-04-03T17:26:12;50.22;;;20.30;;
79401;SDS011;68857;47.916;106.940;2023-04-03T17:28:38;48.47;;;20.02;;
79401;SDS011;68857;47.916;106.940;2023-04-03T17:31:05;45.97;;;18.50;;
79401;SDS011;68857;47.916;106.940;2023-04-03T17:33:33;51.00;;;20.70;;
79401;SDS011;68857;47.916;106.940;2023-04-03T17:36:00;51.47;;;19.90;;
79401;SDS011;68857;47.916;106.940;2023-04-03T17:38:29;44.35;;;19.38;;
79401;SDS011;68857;47.916;106.940;2023-04-03T17:40:59;45.75;;;20.25;;
79401;SDS011;68857;47.916;106.940;2023-04-03T17:43:26;45.65;;;19.48;;
79401;SDS011;68857;47.916;106.940;2023-04-03T17:45:53;48.40;;;20.33;;
79401;SDS011;68857;47.916;106.940;2023-04-03T17:48:20;43.38;;;17.98;;
79401;SDS011;68857;47.916;106.940;2023-04-03T17:50:46;44.55;;;18.38;;
79401;SDS011;68857;47.916;106.940;2023-04-03T17:53:13;44.47;;;16.98;;